Time;durP1;ratioP1;P1;durP2;ratioP2;P2;SDS_P1;SDS_P2;PMS_P1;PMS_P2;Temp;Humidity;BMP_temperature;BMP_pressure;BME280_temperature;BME280_humidity;BME280_pressure;Samples;Min_cycle;Max_cycle;Signal;HPM_P1;HPM_P2
2023/01/26 00:01:14;;;;;;;65.93;28.87;;;0.10;99.90;;;;;;4846511;29;20273;-88
2023/01/26 00:03:40;;;;;;;74.30;29.80;;;0.20;99.90;;;;;;4839534;29;20128;-90
2023/01/26 00:06:08;;;;;;;65.70;28.63;;;0.20;99.90;;;;;;4829811;29;20136;-90
2023/01/26 00:08:36;;;;;;;75.47;31.03;;;0.20;99.90;;;;;;4832474;29;20041;-90
2023/01/26 00:11:03;;;;;;;67.47;28.43;;;0.20;99.90;;;;;;4831769;29;20405;-89
2023/01/26 00:13:31;;;;;;;65.30;28.13;;;0.20;99.90;;;;;;4831568;29;20053;-89
2023/01/26 00:15:57;;;;;;;78.03;30.33;;;0.20;99.90;;;;;;4817141;29;20485;-89
2023/01/26 00:18:23;;;;;;;71.40;30.27;;;0.20;99.90;;;;;;4834160;29;20045;-90
2023/01/26 00:20:58;;;;;;;70.37;29.03;;;0.30;99.90;;;;;;4828226;29;20132;-88
2023/01/26 00:23:24;;;;;;;77.60;29.27;;;0.30;99.90;;;;;;4836169;29;20053;-88
2023/01/26 00:25:50;;;;;;;67.63;28.33;;;0.30;99.90;;;;;;4850683;29;20045;-88
2023/01/26 00:28:16;;;;;;;75.77;29.57;;;0.30;99.90;;;;;;4850130;29;20079;-89
2023/01/26 00:30:42;;;;;;;72.57;27.57;;;0.30;99.90;;;;;;4820237;29;20505;-89
2023/01/26 00:33:07;;;;;;;69.50;27.90;;;0.30;99.90;;;;;;4849921;29;20051;-89
2023/01/26 00:35:33;;;;;;;74.77;28.97;;;0.30;99.90;;;;;;4849808;29;20052;-88
2023/01/26 00:37:59;;;;;;;61.83;25.83;;;0.30;99.90;;;;;;4831172;29;20045;-88
2023/01/26 00:40:25;;;;;;;64.17;25.63;;;0.30;99.90;;;;;;4839592;29;20100;-89
2023/01/26 00:42:53;;;;;;;70.53;27.27;;;0.30;99.90;;;;;;4849299;29;20378;-88
2023/01/26 00:45:21;;;;;;;60.30;25.17;;;0.30;99.90;;;;;;4864574;29;20052;-89
2023/01/26 00:47:47;;;;;;;73.90;26.70;;;0.30;99.90;;;;;;4864180;29;20048;-89
2023/01/26 00:50:13;;;;;;;67.37;26.13;;;0.30;99.90;;;;;;4830060;29;20037;-88
2023/01/26 00:52:39;;;;;;;59.57;25.73;;;0.30;99.90;;;;;;4818165;29;20049;-88
2023/01/26 00:55:05;;;;;;;55.80;23.80;;;0.30;99.90;;;;;;4833557;29;20045;-87
2023/01/26 00:57:31;;;;;;;56.80;23.43;;;0.30;99.90;;;;;;4833304;29;20041;-89
2023/01/26 00:59:57;;;;;;;58.23;23.60;;;0.30;99.90;;;;;;4818459;29;20056;-88
2023/01/26 01:02:23;;;;;;;53.00;24.07;;;0.30;99.90;;;;;;4848519;29;20119;-88
2023/01/26 01:04:48;;;;;;;57.87;23.70;;;0.30;99.90;;;;;;4848349;29;20590;-88
2023/01/26 01:07:14;;;;;;;60.37;23.93;;;0.30;99.90;;;;;;4848074;29;20080;-87
2023/01/26 01:09:40;;;;;;;57.10;23.90;;;0.30;99.90;;;;;;4817886;29;20064;-88
2023/01/26 01:12:06;;;;;;;55.07;23.77;;;0.40;99.90;;;;;;4848206;29;20076;-88
2023/01/26 01:14:31;;;;;;;57.97;24.63;;;0.40;99.90;;;;;;4851001;29;20144;-88
2023/01/26 01:16:57;;;;;;;57.37;23.77;;;0.40;99.90;;;;;;4827551;29;20049;-88
2023/01/26 01:19:23;;;;;;;59.33;24.13;;;0.40;99.90;;;;;;4841204;29;20780;-88
2023/01/26 01:21:49;;;;;;;55.77;23.67;;;0.40;99.90;;;;;;4848041;29;20048;-87
2023/01/26 01:24:15;;;;;;;65.00;25.87;;;0.40;99.90;;;;;;4848661;29;20045;-87
2023/01/26 01:26:40;;;;;;;54.83;24.93;;;0.40;99.90;;;;;;4818080;29;20045;-87
2023/01/26 01:29:09;;;;;;;53.23;23.30;;;0.50;99.90;;;;;;4832870;29;20045;-88
2023/01/26 01:31:34;;;;;;;56.17;23.30;;;0.50;99.90;;;;;;4847826;29;20045;-88
2023/01/26 01:34:00;;;;;;;56.93;24.27;;;0.50;99.90;;;;;;4832454;29;20045;-87
2023/01/26 01:36:26;;;;;;;50.73;22.17;;;0.50;99.90;;;;;;4831926;29;20612;-88
2023/01/26 01:38:52;;;;;;;60.20;24.43;;;0.50;99.90;;;;;;4840295;29;20102;-88
2023/01/26 01:41:20;;;;;;;57.90;24.03;;;0.50;99.90;;;;;;4830078;29;20045;-88
2023/01/26 01:43:46;;;;;;;50.73;21.70;;;0.50;99.90;;;;;;4830057;29;20510;-88
2023/01/26 01:46:35;;;;;;;56.37;23.87;;;0.50;99.90;;;;;;4829025;29;20375;-87
2023/01/26 01:49:15;;;;;;;56.43;23.23;;;0.50;99.90;;;;;;4848057;29;20049;-87
2023/01/26 01:51:46;;;;;;;59.33;24.57;;;0.50;99.90;;;;;;4847875;29;20077;-88
2023/01/26 01:54:17;;;;;;;51.17;21.90;;;0.50;99.90;;;;;;4847913;29;20486;-87
2023/01/26 01:56:49;;;;;;;56.37;24.07;;;0.50;99.90;;;;;;4847917;29;20133;-87
2023/01/26 01:59:19;;;;;;;44.13;20.73;;;0.50;99.90;;;;;;4847801;29;20045;-86
2023/01/26 02:01:46;;;;;;;46.43;21.03;;;0.50;99.90;;;;;;4833686;29;20040;-86
2023/01/26 02:04:12;;;;;;;45.17;19.30;;;0.50;99.90;;;;;;4832438;29;20045;-87
2023/01/26 02:06:51;;;;;;;48.87;21.07;;;0.50;99.90;;;;;;4846944;29;20052;-86
2023/01/26 02:12:10;;;;;;;44.87;19.87;;;0.50;99.90;;;;;;4861962;29;20078;-86
2023/01/26 02:14:36;;;;;;;42.43;18.83;;;0.50;99.90;;;;;;4838324;29;20406;-86
2023/01/26 02:17:01;;;;;;;43.27;20.30;;;0.50;99.90;;;;;;4836852;29;20128;-86
2023/01/26 02:19:43;;;;;;;43.83;19.80;;;0.50;99.90;;;;;;4813461;29;20406;-86
2023/01/26 02:22:43;;;;;;;45.83;19.45;;;0.60;99.90;;;;;;4842519;29;20140;-86
2023/01/26 02:25:36;;;;;;;46.80;20.73;;;0.50;99.90;;;;;;4856537;29;20185;-85
2023/01/26 02:28:02;;;;;;;50.43;20.60;;;0.50;99.90;;;;;;4838846;29;20065;-85
2023/01/26 02:30:29;;;;;;;45.87;19.83;;;0.60;99.90;;;;;;4846060;29;20041;-86
2023/01/26 02:32:55;;;;;;;43.07;19.53;;;0.60;99.90;;;;;;4840927;29;20074;-86
2023/01/26 02:35:21;;;;;;;45.13;19.97;;;0.60;99.90;;;;;;4825831;29;20041;-86
2023/01/26 02:37:47;;;;;;;46.00;20.10;;;0.60;99.90;;;;;;4816149;29;20049;-85
2023/01/26 02:40:30;;;;;;;41.07;20.33;;;0.60;99.90;;;;;;4831905;29;20378;-86
2023/01/26 02:42:55;;;;;;;47.13;20.47;;;0.60;99.90;;;;;;4833941;29;20076;-86
2023/01/26 02:45:22;;;;;;;43.80;20.03;;;0.70;99.90;;;;;;4829769;29;20064;-86
2023/01/26 02:47:48;;;;;;;46.17;20.57;;;0.60;99.90;;;;;;4835384;29;20041;-86
2023/01/26 02:50:14;;;;;;;48.07;19.97;;;0.60;99.90;;;;;;4829761;29;20180;-87
2023/01/26 02:52:40;;;;;;;48.23;21.27;;;0.70;99.90;;;;;;4840817;29;20029;-87
2023/01/26 02:55:21;;;;;;;41.13;18.70;;;0.70;99.90;;;;;;4843499;29;20105;-86
2023/01/26 02:57:49;;;;;;;41.75;19.52;;;0.70;99.90;;;;;;4840133;29;20041;-87
2023/01/26 03:00:17;;;;;;;43.70;19.07;;;0.70;99.90;;;;;;4831695;29;20096;-87
2023/01/26 03:02:45;;;;;;;44.90;19.30;;;0.70;99.90;;;;;;4836754;29;20041;-85
2023/01/26 03:05:11;;;;;;;45.47;19.83;;;0.70;99.90;;;;;;4828260;29;20041;-87
2023/01/26 03:07:36;;;;;;;41.60;19.80;;;0.70;99.90;;;;;;4828465;29;20169;-87
2023/01/26 03:10:04;;;;;;;54.70;21.20;;;0.70;99.90;;;;;;4835505;29;20037;-87
2023/01/26 03:12:30;;;;;;;38.80;18.17;;;0.70;99.90;;;;;;4809302;29;20132;-87
2023/01/26 03:15:41;;;;;;;44.10;18.77;;;0.70;99.90;;;;;;4794065;29;20129;-87
2023/01/26 03:17:42;;;;;;;37.60;17.40;;;0.80;99.90;;;;;;4839915;29;20101;-87
2023/01/26 03:28:21;;;;;;;43.50;19.30;;;0.70;99.90;;;;;;4824624;29;20053;-86
2023/01/26 03:30:53;;;;;;;37.93;17.90;;;0.80;99.90;;;;;;4837025;29;20040;-87
2023/01/26 03:33:19;;;;;;;34.70;16.80;;;0.80;99.90;;;;;;4830984;29;20120;-87
2023/01/26 03:35:46;;;;;;;36.40;17.47;;;0.70;99.90;;;;;;4861689;29;20044;-88
2023/01/26 03:38:11;;;;;;;37.27;17.13;;;0.70;99.90;;;;;;4832062;29;20462;-88
2023/01/26 03:57:05;;;;;;;33.20;15.77;;;0.80;99.90;;;;;;4848657;29;20454;-87
2023/01/26 03:59:37;;;;;;;42.73;17.13;;;0.80;99.90;;;;;;4847963;29;20037;-87
2023/01/26 04:10:22;;;;;;;32.77;14.97;;;0.90;99.90;;;;;;4846455;29;20060;-87
2023/01/26 04:23:49;;;;;;;30.17;14.03;;;0.90;99.90;;;;;;4845792;29;20109;-86
2023/01/26 04:26:15;;;;;;;32.77;15.20;;;0.90;99.90;;;;;;4832983;29;20128;-87
2023/01/26 04:28:41;;;;;;;31.60;14.03;;;1.00;99.90;;;;;;4864516;29;20144;-86
2023/01/26 04:31:07;;;;;;;29.77;13.47;;;1.00;99.90;;;;;;4833829;29;20485;-87
2023/01/26 04:33:33;;;;;;;30.03;13.10;;;1.00;99.90;;;;;;4839024;29;20067;-86
2023/01/26 04:36:06;;;;;;;26.17;13.07;;;1.00;99.90;;;;;;4830807;29;20045;-87
2023/01/26 04:38:32;;;;;;;33.67;14.67;;;1.10;99.90;;;;;;4845878;29;20061;-86
2023/01/26 04:40:58;;;;;;;24.83;12.67;;;1.00;99.90;;;;;;4830880;29;20052;-87
2023/01/26 04:43:24;;;;;;;25.60;12.30;;;1.00;99.90;;;;;;4830328;29;20057;-86
2023/01/26 04:46:00;;;;;;;27.00;12.43;;;1.10;99.90;;;;;;4831243;29;20169;-86
2023/01/26 04:48:27;;;;;;;27.77;12.67;;;1.10;99.90;;;;;;4830714;29;20045;-86
2023/01/26 04:50:55;;;;;;;22.40;12.67;;;1.10;99.90;;;;;;4830385;29;20051;-86
2023/01/26 04:53:21;;;;;;;24.10;12.57;;;1.10;99.90;;;;;;4815719;29;20045;-87
2023/01/26 04:55:47;;;;;;;26.20;11.53;;;1.10;99.90;;;;;;4831208;29;20397;-87
2023/01/26 04:58:12;;;;;;;28.33;12.40;;;1.10;99.90;;;;;;4843479;29;20397;-88
2023/01/26 05:00:38;;;;;;;26.77;13.17;;;1.10;99.90;;;;;;4834130;29;20055;-87
2023/01/26 05:03:04;;;;;;;24.20;11.80;;;1.10;99.90;;;;;;4834226;29;20049;-87
2023/01/26 05:05:30;;;;;;;21.90;11.47;;;1.10;99.90;;;;;;4850031;29;20468;-87
2023/01/26 05:07:55;;;;;;;29.10;13.07;;;1.10;99.90;;;;;;4849793;29;20529;-86
2023/01/26 05:10:22;;;;;;;21.30;11.33;;;1.10;99.90;;;;;;4834350;29;20497;-87
2023/01/26 05:12:47;;;;;;;21.83;11.63;;;1.20;99.90;;;;;;4864856;29;20127;-87
2023/01/26 05:15:13;;;;;;;31.73;12.70;;;1.20;99.90;;;;;;4864890;29;20454;-86
2023/01/26 05:17:39;;;;;;;24.60;11.97;;;1.20;99.90;;;;;;4834580;29;20045;-86
2023/01/26 05:20:05;;;;;;;19.23;10.63;;;1.20;99.90;;;;;;4834099;29;20047;-86
2023/01/26 05:22:31;;;;;;;30.63;12.60;;;1.20;99.90;;;;;;4830666;29;20041;-85
2023/01/26 05:24:56;;;;;;;23.97;11.17;;;1.20;99.90;;;;;;4815894;29;20041;-87
2023/01/26 05:27:22;;;;;;;23.27;11.80;;;1.20;99.90;;;;;;4830747;29;20132;-85
2023/01/26 05:29:49;;;;;;;17.43;10.57;;;1.20;99.90;;;;;;4845853;29;20084;-85
2023/01/26 05:32:15;;;;;;;29.80;12.03;;;1.10;99.90;;;;;;4830836;29;20060;-86
2023/01/26 05:34:41;;;;;;;24.67;12.60;;;1.20;99.90;;;;;;4845793;29;20049;-86
2023/01/26 05:37:07;;;;;;;22.83;11.13;;;1.20;99.90;;;;;;4830472;29;20060;-86
2023/01/26 05:39:32;;;;;;;21.70;10.87;;;1.20;99.90;;;;;;4831090;29;20045;-85
2023/01/26 05:41:58;;;;;;;25.53;12.13;;;1.20;99.90;;;;;;4846438;29;20045;-86
2023/01/26 05:44:24;;;;;;;19.87;10.60;;;1.20;99.90;;;;;;4830878;29;20057;-85
2023/01/26 05:46:51;;;;;;;22.57;11.60;;;1.20;99.90;;;;;;4845558;29;20087;-85
2023/01/26 05:49:16;;;;;;;23.70;11.67;;;1.30;99.90;;;;;;4830416;29;20053;-85
2023/01/26 05:51:42;;;;;;;24.97;11.57;;;1.30;99.90;;;;;;4830530;29;20056;-85
2023/01/26 05:54:08;;;;;;;23.13;11.73;;;1.20;99.90;;;;;;4830159;29;20045;-85
2023/01/26 05:56:34;;;;;;;22.63;11.87;;;1.30;99.90;;;;;;4830480;29;20137;-85
2023/01/26 05:59:00;;;;;;;21.83;11.30;;;1.30;99.90;;;;;;4845470;29;20669;-85
2023/01/26 06:01:25;;;;;;;29.93;14.00;;;1.30;99.90;;;;;;4830166;29;20132;-85
2023/01/26 06:03:51;;;;;;;22.90;10.97;;;1.30;99.90;;;;;;4845547;29;20049;-85
2023/01/26 06:06:17;;;;;;;32.73;13.73;;;1.30;99.90;;;;;;4830071;29;20045;-85
2023/01/26 06:08:42;;;;;;;41.83;13.97;;;1.30;99.90;;;;;;4845171;29;20041;-86
2023/01/26 06:11:08;;;;;;;38.63;15.77;;;1.30;99.90;;;;;;4859592;29;20045;-85
2023/01/26 06:13:34;;;;;;;34.40;14.37;;;1.30;99.90;;;;;;4833341;29;20131;-85
2023/01/26 06:16:01;;;;;;;40.60;16.13;;;1.30;99.90;;;;;;4848358;29;20374;-85
2023/01/26 06:18:26;;;;;;;46.47;17.20;;;1.30;99.90;;;;;;4848422;29;20060;-85
2023/01/26 06:20:52;;;;;;;44.50;16.43;;;1.30;99.90;;;;;;4847447;29;20485;-86
2023/01/26 06:23:18;;;;;;;43.97;16.83;;;1.40;99.90;;;;;;4848067;29;20128;-86
2023/01/26 06:25:43;;;;;;;34.23;15.40;;;1.30;99.90;;;;;;4832996;29;20433;-86
2023/01/26 06:28:09;;;;;;;36.87;16.43;;;1.40;99.90;;;;;;4829963;29;20127;-85
2023/01/26 06:30:35;;;;;;;51.73;17.70;;;1.40;99.90;;;;;;4829964;29;20046;-85
2023/01/26 06:33:01;;;;;;;52.63;18.40;;;1.40;99.90;;;;;;4845055;29;20064;-86
2023/01/26 06:35:27;;;;;;;47.50;16.50;;;1.30;99.90;;;;;;4829848;29;20778;-86
2023/01/26 06:37:52;;;;;;;47.50;17.40;;;1.40;99.90;;;;;;4829417;29;20061;-86
2023/01/26 06:40:19;;;;;;;47.80;16.57;;;1.40;99.90;;;;;;4814597;29;20098;-85
2023/01/26 06:42:50;;;;;;;69.00;19.93;;;1.40;99.90;;;;;;4814155;29;20498;-86
2023/01/26 06:45:17;;;;;;;34.95;16.45;;;1.40;99.90;;;;;;4829697;29;20044;-86
2023/01/26 06:47:50;;;;;;;41.07;15.87;;;1.40;99.90;;;;;;4835070;29;20455;-86
2023/01/26 06:50:19;;;;;;;45.90;15.77;;;1.40;99.90;;;;;;4862898;29;20048;-86
2023/01/26 06:52:54;;;;;;;64.20;18.60;;;1.40;99.90;;;;;;4862873;29;20041;-85
2023/01/26 06:55:28;;;;;;;38.37;15.20;;;1.40;99.90;;;;;;4862354;29;20045;-86
2023/01/26 06:57:53;;;;;;;48.33;16.50;;;1.40;99.90;;;;;;4836128;29;20501;-87
2023/01/26 07:00:19;;;;;;;85.57;21.50;;;1.40;99.90;;;;;;4830854;29;20128;-86
2023/01/26 07:02:45;;;;;;;61.77;18.63;;;1.40;99.90;;;;;;4816838;29;20112;-87
2023/01/26 07:05:11;;;;;;;54.50;18.10;;;1.40;99.90;;;;;;4818595;29;20494;-87
2023/01/26 07:07:37;;;;;;;52.07;18.43;;;1.40;99.90;;;;;;4792793;29;20038;-87
2023/01/26 07:10:05;;;;;;;82.33;21.27;;;1.40;99.90;;;;;;4836256;29;20124;-86
2023/01/26 07:12:43;;;;;;;68.83;20.73;;;1.40;99.90;;;;;;4822643;29;20069;-87
2023/01/26 07:15:10;;;;;;;52.37;18.23;;;1.40;99.90;;;;;;4841068;29;20079;-87
2023/01/26 07:17:38;;;;;;;42.07;15.90;;;1.40;99.90;;;;;;4836684;29;20084;-85
2023/01/26 07:20:06;;;;;;;60.73;20.43;;;1.40;99.90;;;;;;4847147;29;20064;-85
2023/01/26 07:22:31;;;;;;;67.07;22.07;;;1.40;99.90;;;;;;4832383;29;20049;-85
2023/01/26 07:24:57;;;;;;;52.93;18.67;;;1.50;99.90;;;;;;4832117;29;20581;-86
2023/01/26 07:27:23;;;;;;;45.00;16.47;;;1.40;99.90;;;;;;4847388;29;20064;-86
2023/01/26 07:29:50;;;;;;;72.57;20.47;;;1.40;99.90;;;;;;4862587;29;20045;-87
2023/01/26 07:32:16;;;;;;;73.70;21.57;;;1.50;99.90;;;;;;4848611;29;20053;-88
2023/01/26 07:34:42;;;;;;;63.37;20.80;;;1.50;99.90;;;;;;4852451;29;20045;-87
2023/01/26 07:37:07;;;;;;;51.60;18.60;;;1.50;99.90;;;;;;4865896;29;20135;-87
2023/01/26 07:39:33;;;;;;;55.30;19.80;;;1.40;99.90;;;;;;4845614;29;20909;-87
2023/01/26 07:41:59;;;;;;;64.10;20.60;;;1.50;99.90;;;;;;4847455;29;20042;-86
2023/01/26 07:44:24;;;;;;;58.40;19.90;;;1.50;99.90;;;;;;4832465;29;20093;-86
2023/01/26 07:46:50;;;;;;;63.20;21.33;;;1.50;99.90;;;;;;4834462;29;20041;-87
2023/01/26 07:49:16;;;;;;;69.03;20.77;;;1.60;99.90;;;;;;4834361;29;20045;-86
2023/01/26 07:51:42;;;;;;;71.20;22.67;;;1.60;99.90;;;;;;4832539;29;20450;-86
2023/01/26 07:54:11;;;;;;;68.63;21.20;;;1.60;99.90;;;;;;4827962;29;20083;-85
2023/01/26 07:56:37;;;;;;;63.43;20.33;;;1.70;99.90;;;;;;4839022;29;20037;-86
2023/01/26 07:59:03;;;;;;;67.00;21.87;;;1.70;99.90;;;;;;4866191;29;20151;-87
2023/01/26 08:01:29;;;;;;;59.90;20.03;;;1.70;99.90;;;;;;4850679;29;20040;-87
2023/01/26 08:03:55;;;;;;;69.23;20.07;;;1.70;99.90;;;;;;4834428;29;20044;-88
2023/01/26 08:06:21;;;;;;;54.33;18.57;;;1.70;99.90;;;;;;4829327;29;20045;-86
2023/01/26 08:08:52;;;;;;;60.67;19.53;;;1.70;99.90;;;;;;4830417;29;20467;-87
2023/01/26 08:11:21;;;;;;;62.13;19.47;;;1.70;99.90;;;;;;4832093;29;20128;-86
2023/01/26 08:13:46;;;;;;;63.97;20.63;;;1.70;99.90;;;;;;4836829;29;20079;-86
2023/01/26 08:16:13;;;;;;;54.30;19.40;;;1.70;99.90;;;;;;4826760;29;20081;-87
2023/01/26 08:18:40;;;;;;;70.97;20.13;;;1.60;99.90;;;;;;4824993;29;20045;-87
2023/01/26 08:21:06;;;;;;;66.67;20.07;;;1.70;99.90;;;;;;4811471;29;20072;-88
2023/01/26 08:23:32;;;;;;;69.57;19.47;;;1.80;99.90;;;;;;4839745;29;20081;-87
2023/01/26 08:26:03;;;;;;;70.17;19.77;;;1.80;99.90;;;;;;4823488;29;20042;-87
2023/01/26 08:28:28;;;;;;;59.57;17.57;;;1.80;99.90;;;;;;4816492;29;20038;-88
2023/01/26 08:30:54;;;;;;;71.00;19.43;;;1.80;99.90;;;;;;4831212;29;20097;-88
2023/01/26 08:33:21;;;;;;;65.80;18.77;;;1.80;99.90;;;;;;4830955;29;20053;-87
2023/01/26 08:35:47;;;;;;;61.40;17.63;;;1.80;99.90;;;;;;4832839;29;20041;-87
2023/01/26 08:38:12;;;;;;;59.80;17.27;;;1.80;99.90;;;;;;4864498;29;20112;-88
2023/01/26 08:40:38;;;;;;;44.70;16.83;;;1.90;99.90;;;;;;4832401;29;20493;-88
2023/01/26 08:43:04;;;;;;;60.93;17.50;;;2.00;99.90;;;;;;4830885;29;20053;-87
2023/01/26 08:45:31;;;;;;;63.60;18.07;;;2.00;99.90;;;;;;4855485;29;20072;-87
2023/01/26 08:47:56;;;;;;;61.93;17.37;;;2.10;99.90;;;;;;4842060;29;20033;-88
2023/01/26 08:50:23;;;;;;;63.50;17.13;;;2.20;99.90;;;;;;4862646;29;20554;-87
2023/01/26 08:52:49;;;;;;;53.20;15.50;;;2.10;99.90;;;;;;4816395;29;20132;-88
2023/01/26 08:55:14;;;;;;;50.70;15.47;;;2.20;99.90;;;;;;4820039;29;20560;-87
2023/01/26 08:57:40;;;;;;;65.57;16.93;;;2.20;99.90;;;;;;4818609;29;20128;-87
2023/01/26 09:00:07;;;;;;;54.37;16.17;;;2.40;99.90;;;;;;4833701;29;20045;-87
2023/01/26 09:02:32;;;;;;;52.53;15.47;;;2.40;99.90;;;;;;4849031;29;20164;-87
2023/01/26 09:04:58;;;;;;;54.97;15.03;;;2.50;99.90;;;;;;4833643;29;20379;-87
2023/01/26 09:07:25;;;;;;;58.67;13.53;;;2.60;99.90;;;;;;4827713;29;20064;-87
2023/01/26 09:09:51;;;;;;;53.07;14.23;;;2.70;99.90;;;;;;4833374;29;20049;-87
2023/01/26 09:12:16;;;;;;;51.33;14.57;;;2.90;99.90;;;;;;4833132;29;20041;-88
2023/01/26 09:14:42;;;;;;;52.03;13.47;;;3.00;99.90;;;;;;4839089;29;20046;-88
2023/01/26 09:17:08;;;;;;;43.23;11.63;;;3.00;99.90;;;;;;4814156;29;20049;-88
2023/01/26 09:19:33;;;;;;;46.93;13.20;;;3.10;99.90;;;;;;4833109;29;20052;-87
2023/01/26 09:21:59;;;;;;;60.47;12.63;;;3.20;99.90;;;;;;4845040;29;20090;-87
2023/01/26 09:24:25;;;;;;;54.77;14.27;;;3.40;99.90;;;;;;4830198;29;20045;-87
2023/01/26 09:26:51;;;;;;;51.77;11.73;;;3.50;99.90;;;;;;4837116;29;20045;-88
2023/01/26 09:29:17;;;;;;;41.47;11.40;;;3.60;99.90;;;;;;4833540;29;20052;-88
2023/01/26 09:31:42;;;;;;;45.27;11.00;;;3.70;99.90;;;;;;4832973;29;20501;-88
2023/01/26 09:34:11;;;;;;;41.83;10.97;;;3.80;99.90;;;;;;4838825;29;20043;-88
2023/01/26 09:36:36;;;;;;;38.97;10.67;;;3.80;99.90;;;;;;4824609;29;20045;-88
2023/01/26 09:39:02;;;;;;;39.60;10.37;;;3.80;99.90;;;;;;4845150;29;20053;-89
2023/01/26 09:41:48;;;;;;;40.50;10.80;;;3.90;99.90;;;;;;4829584;29;20037;-88
2023/01/26 09:44:24;;;;;;;41.87;9.97;;;4.00;99.90;;;;;;4829538;29;20049;-88
2023/01/26 09:47:16;;;;;;;39.80;9.03;;;4.10;99.90;;;;;;4839361;29;20049;-88
2023/01/26 09:49:49;;;;;;;35.17;9.87;;;4.20;99.90;;;;;;4829191;29;20053;-89
2023/01/26 09:52:45;;;;;;;39.37;9.43;;;4.30;99.90;;;;;;4825327;29;20436;-88
2023/01/26 09:55:18;;;;;;;47.47;9.60;;;4.40;99.90;;;;;;4810394;29;20046;-88
2023/01/26 09:57:49;;;;;;;34.90;8.23;;;4.50;99.90;;;;;;4842525;29;20045;-89
2023/01/26 10:00:23;;;;;;;38.00;9.03;;;4.60;99.90;;;;;;4847652;29;20377;-88
2023/01/26 10:03:04;;;;;;;35.23;8.77;;;4.70;99.90;;;;;;4847332;29;20049;-88
2023/01/26 10:05:58;;;;;;;38.87;8.33;;;4.80;99.90;;;;;;4856175;29;20379;-88
2023/01/26 10:08:25;;;;;;;29.23;8.00;;;4.90;99.90;;;;;;4834380;29;20553;-88
2023/01/26 10:11:15;;;;;;;36.67;7.73;;;5.00;99.90;;;;;;4829316;29;20041;-88
2023/01/26 10:13:52;;;;;;;28.33;6.53;;;5.00;99.90;;;;;;4810182;29;20057;-88
2023/01/26 10:16:18;;;;;;;32.03;6.37;;;5.10;99.90;;;;;;4824633;29;20056;-89
2023/01/26 10:18:53;;;;;;;31.90;7.27;;;5.20;99.90;;;;;;4828567;29;20426;-88
2023/01/26 10:21:22;;;;;;;34.37;6.67;;;5.30;99.90;;;;;;4847027;29;20124;-87
2023/01/26 10:23:48;;;;;;;31.77;6.60;;;5.30;99.90;;;;;;4855058;29;20076;-89
2023/01/26 10:26:22;;;;;;;29.63;7.27;;;5.40;99.90;;;;;;4845728;29;20059;-89
2023/01/26 10:28:50;;;;;;;31.93;6.90;;;5.50;99.90;;;;;;4837995;29;20057;-89
2023/01/26 10:31:20;;;;;;;35.10;7.37;;;5.60;99.90;;;;;;4843225;29;20044;-88
2023/01/26 10:34:02;;;;;;;27.67;6.57;;;5.60;99.90;;;;;;4851186;29;20045;-89
2023/01/26 10:36:31;;;;;;;37.53;6.15;;;5.70;99.90;;;;;;4828622;29;20038;-89
2023/01/26 10:39:08;;;;;;;26.93;5.97;;;5.80;99.90;;;;;;4828580;29;20552;-89
2023/01/26 10:41:38;;;;;;;23.90;6.03;;;5.90;99.90;;;;;;4828440;29;20053;-87
2023/01/26 10:44:12;;;;;;;29.90;5.77;;;6.00;99.90;;;;;;4838359;29;20871;-88
2023/01/26 10:46:40;;;;;;;25.27;5.63;;;6.00;99.90;;;;;;4844398;29;20046;-88
2023/01/26 10:49:13;;;;;;;27.10;5.80;;;6.10;99.90;;;;;;4838399;29;20085;-87
2023/01/26 10:51:45;;;;;;;25.57;4.83;;;6.20;99.90;;;;;;4827962;29;20045;-88
2023/01/26 10:54:30;;;;;;;20.92;5.55;;;6.30;99.90;;;;;;4843383;29;20136;-89
2023/01/26 10:57:11;;;;;;;24.43;5.43;;;6.30;99.90;;;;;;4814274;29;20046;-87
2023/01/26 10:59:45;;;;;;;21.58;5.18;;;6.40;99.90;;;;;;4837794;29;20078;-88
2023/01/26 11:02:10;;;;;;;21.33;4.97;;;6.50;99.90;;;;;;4833130;29;20553;-88
2023/01/26 11:04:37;;;;;;;19.90;5.37;;;6.50;99.90;;;;;;4839939;29;20120;-87
2023/01/26 11:07:27;;;;;;;23.60;4.80;;;6.60;99.90;;;;;;4843857;29;20059;-88
2023/01/26 11:09:54;;;;;;;23.20;5.23;;;6.70;99.90;;;;;;4836910;29;20048;-88
2023/01/26 11:12:21;;;;;;;27.50;5.63;;;6.70;99.90;;;;;;4846173;29;20045;-88
2023/01/26 11:15:14;;;;;;;24.20;5.17;;;6.70;99.90;;;;;;4830776;29;20045;-87
2023/01/26 11:17:58;;;;;;;22.53;4.73;;;6.80;99.90;;;;;;4826834;29;20109;-89
2023/01/26 11:20:59;;;;;;;23.33;4.90;;;6.90;99.90;;;;;;4845855;29;20133;-89
2023/01/26 11:23:44;;;;;;;25.27;4.80;;;7.00;99.90;;;;;;4760593;29;20091;-88
2023/01/26 11:26:47;;;;;;;19.33;3.93;;;7.10;99.90;;;;;;4825271;29;20046;-87
2023/01/26 11:29:24;;;;;;;23.25;5.47;;;7.10;99.90;;;;;;4820828;29;20045;-88
2023/01/26 11:32:31;;;;;;;23.53;4.93;;;7.20;99.90;;;;;;4850967;29;20052;-86
2023/01/26 11:35:21;;;;;;;17.70;4.23;;;7.20;99.90;;;;;;4754844;30;20092;-88
2023/01/26 11:38:01;;;;;;;20.17;4.27;;;7.30;99.90;;;;;;4752022;30;20052;-87
2023/01/26 11:40:44;;;;;;;20.33;4.63;;;7.30;99.90;;;;;;4816236;29;20053;-88
2023/01/26 11:43:32;;;;;;;21.92;4.72;;;7.30;99.90;;;;;;4843881;29;20049;-88
2023/01/26 11:46:41;;;;;;;20.90;4.20;;;7.40;99.90;;;;;;4835453;29;20037;-88
2023/01/26 11:49:32;;;;;;;20.13;4.37;;;7.40;99.90;;;;;;4768200;29;20043;-87
2023/01/26 11:52:13;;;;;;;22.23;4.97;;;7.50;99.90;;;;;;4787356;29;20487;-88
2023/01/26 11:54:38;;;;;;;21.13;4.47;;;7.60;99.90;;;;;;4814774;29;20661;-87
2023/01/26 11:57:36;;;;;;;23.93;4.83;;;7.60;99.90;;;;;;4846622;29;20136;-88
2023/01/26 12:00:14;;;;;;;17.60;4.00;;;7.60;99.90;;;;;;4775367;29;20053;-88
2023/01/26 12:02:44;;;;;;;21.77;4.33;;;7.60;99.90;;;;;;4831840;29;20566;-88
2023/01/26 12:05:19;;;;;;;19.23;4.23;;;7.60;99.90;;;;;;4824260;29;20045;-88
2023/01/26 12:07:54;;;;;;;31.73;4.53;;;7.70;99.90;;;;;;4827661;29;20390;-88
2023/01/26 12:10:41;;;;;;;25.23;4.00;;;7.70;99.90;;;;;;4842209;29;20554;-87
2023/01/26 12:13:42;;;;;;;21.00;4.13;;;7.80;99.90;;;;;;4831311;29;20080;-88
2023/01/26 12:16:17;;;;;;;22.03;4.30;;;7.90;99.90;;;;;;4819675;29;20132;-88
2023/01/26 12:19:21;;;;;;;21.03;3.90;;;7.90;99.90;;;;;;4831277;29;20101;-87
2023/01/26 12:21:48;;;;;;;22.17;4.33;;;7.90;99.90;;;;;;4820127;29;20050;-87
2023/01/26 12:24:19;;;;;;;20.33;3.60;;;7.90;99.90;;;;;;4833904;29;20049;-87
2023/01/26 12:26:50;;;;;;;16.50;3.50;;;7.80;99.90;;;;;;4845070;29;20072;-86
2023/01/26 12:29:32;;;;;;;16.60;3.77;;;7.80;99.90;;;;;;4849081;29;20080;-88
2023/01/26 12:32:10;;;;;;;21.13;3.70;;;7.70;99.90;;;;;;4848241;29;20045;-87
2023/01/26 12:34:35;;;;;;;16.60;2.87;;;7.40;99.90;;;;;;4823648;29;20412;-87
2023/01/26 12:37:13;;;;;;;12.73;3.17;;;7.30;99.90;;;;;;4815922;29;20045;-88
2023/01/26 12:39:52;;;;;;;12.00;3.00;;;7.20;99.90;;;;;;4831625;29;20067;-88
2023/01/26 12:42:42;;;;;;;10.37;2.50;;;7.10;99.90;;;;;;4836963;29;20499;-89
2023/01/26 12:45:17;;;;;;;15.07;3.13;;;7.00;99.90;;;;;;4819043;29;20049;-85
2023/01/26 12:48:07;;;;;;;10.93;2.57;;;7.00;99.90;;;;;;4854837;29;20135;-86
2023/01/26 12:50:48;;;;;;;11.47;2.47;;;7.10;99.90;;;;;;4838361;29;20093;-87
2023/01/26 12:53:38;;;;;;;17.80;3.33;;;7.20;99.90;;;;;;4836246;29;20125;-87
2023/01/26 12:56:28;;;;;;;12.73;2.70;;;7.30;99.90;;;;;;4848656;29;20080;-87
2023/01/26 12:58:55;;;;;;;13.60;3.17;;;7.30;99.90;;;;;;4836450;29;20106;-87
2023/01/26 13:01:38;;;;;;;13.60;2.87;;;7.30;99.90;;;;;;4822454;29;20494;-91
2023/01/26 13:04:14;;;;;;;16.17;3.30;;;7.40;99.90;;;;;;4837323;29;20049;-86
2023/01/26 13:06:43;;;;;;;16.43;3.40;;;7.40;99.90;;;;;;4821307;29;20101;-84
2023/01/26 13:09:21;;;;;;;14.87;2.97;;;7.50;99.90;;;;;;4819615;29;20295;-84
2023/01/26 13:11:52;;;;;;;16.57;2.60;;;7.60;99.90;;;;;;4822008;29;20050;-83
2023/01/26 13:14:47;;;;;;;16.50;3.28;;;7.60;99.90;;;;;;4852557;29;20080;-84
2023/01/26 13:17:16;;;;;;;11.63;2.67;;;7.60;99.90;;;;;;4800586;29;20438;-84
2023/01/26 13:19:42;;;;;;;12.23;2.67;;;7.70;99.90;;;;;;4822790;29;20502;-83
2023/01/26 13:22:22;;;;;;;13.50;2.50;;;7.70;99.90;;;;;;4837299;29;20398;-82
2023/01/26 13:24:54;;;;;;;15.87;3.50;;;7.70;99.90;;;;;;4837725;29;20049;-83
2023/01/26 13:27:28;;;;;;;10.60;2.72;;;7.70;99.90;;;;;;4822035;29;20133;-83
2023/01/26 13:29:54;;;;;;;11.80;2.30;;;7.70;99.90;;;;;;4836949;29;20080;-82
2023/01/26 13:32:26;;;;;;;16.53;2.97;;;7.70;99.90;;;;;;4821834;29;20779;-82
2023/01/26 13:35:00;;;;;;;12.00;2.30;;;7.60;99.90;;;;;;4851933;29;20049;-82
2023/01/26 13:37:34;;;;;;;10.07;2.50;;;7.60;99.90;;;;;;4821605;29;20037;-82
2023/01/26 13:40:32;;;;;;;14.50;6.97;;;7.50;99.90;;;;;;4836974;29;20513;-83
2023/01/26 13:43:35;;;;;;;12.80;2.10;;;7.50;99.90;;;;;;4822711;29;20057;-85
2023/01/26 13:46:21;;;;;;;7.37;1.73;;;7.40;99.90;;;;;;4836274;29;20056;-84